sensor_id;sensor_type;location;lat;lon;timestamp;P1;durP1;ratioP1;P2;durP2;ratioP2
32826;SDS011;51059;42.058;27.986;2022-09-09T00:02:20;5.77;;;4.17;;
32826;SDS011;51059;42.058;27.986;2022-09-09T00:10:19;6.40;;;3.60;;
32826;SDS011;51059;42.058;27.986;2022-09-09T00:15:59;6.40;;;4.10;;
32826;SDS011;51059;42.058;27.986;2022-09-09T00:21:18;6.17;;;3.67;;
32826;SDS011;51059;42.058;27.986;2022-09-09T00:23:45;6.00;;;4.00;;
32826;SDS011;51059;42.058;27.986;2022-09-09T00:26:22;5.67;;;3.57;;
32826;SDS011;51059;42.058;27.986;2022-09-09T00:28:58;4.03;;;3.63;;
32826;SDS011;51059;42.058;27.986;2022-09-09T00:31:41;5.67;;;3.73;;
32826;SDS011;51059;42.058;27.986;2022-09-09T00:34:13;5.00;;;3.70;;
32826;SDS011;51059;42.058;27.986;2022-09-09T00:36:42;5.97;;;3.93;;
32826;SDS011;51059;42.058;27.986;2022-09-09T00:44:32;6.03;;;3.90;;
32826;SDS011;51059;42.058;27.986;2022-09-09T00:47:12;5.90;;;3.90;;
32826;SDS011;51059;42.058;27.986;2022-09-09T00:55:54;5.33;;;3.67;;
32826;SDS011;51059;42.058;27.986;2022-09-09T00:58:25;4.77;;;4.00;;
32826;SDS011;51059;42.058;27.986;2022-09-09T01:00:55;8.57;;;4.20;;
32826;SDS011;51059;42.058;27.986;2022-09-09T01:03:33;5.27;;;3.70;;
32826;SDS011;51059;42.058;27.986;2022-09-09T01:06:16;6.27;;;4.30;;
32826;SDS011;51059;42.058;27.986;2022-09-09T01:11:40;5.70;;;3.73;;
32826;SDS011;51059;42.058;27.986;2022-09-09T01:17:01;4.20;;;3.70;;
32826;SDS011;51059;42.058;27.986;2022-09-09T01:19:40;5.23;;;4.07;;
32826;SDS011;51059;42.058;27.986;2022-09-09T01:27:32;6.67;;;4.03;;
32826;SDS011;51059;42.058;27.986;2022-09-09T01:29:59;6.93;;;4.20;;
32826;SDS011;51059;42.058;27.986;2022-09-09T01:32:39;5.13;;;4.13;;
32826;SDS011;51059;42.058;27.986;2022-09-09T01:35:14;6.17;;;4.30;;
32826;SDS011;51059;42.058;27.986;2022-09-09T01:37:49;6.27;;;3.80;;
32826;SDS011;51059;42.058;27.986;2022-09-09T01:40:15;4.77;;;3.40;;
32826;SDS011;51059;42.058;27.986;2022-09-09T01:42:40;7.93;;;3.70;;
32826;SDS011;51059;42.058;27.986;2022-09-09T01:45:06;4.33;;;3.73;;
32826;SDS011;51059;42.058;27.986;2022-09-09T01:47:32;4.80;;;3.77;;
32826;SDS011;51059;42.058;27.986;2022-09-09T01:49:58;8.57;;;4.07;;
32826;SDS011;51059;42.058;27.986;2022-09-09T01:52:24;4.13;;;3.70;;
32826;SDS011;51059;42.058;27.986;2022-09-09T01:54:50;6.37;;;3.77;;
32826;SDS011;51059;42.058;27.986;2022-09-09T01:57:18;4.17;;;3.60;;
32826;SDS011;51059;42.058;27.986;2022-09-09T02:08:08;4.17;;;3.77;;
32826;SDS011;51059;42.058;27.986;2022-09-09T02:13:16;6.70;;;4.50;;
32826;SDS011;51059;42.058;27.986;2022-09-09T02:15:46;7.10;;;4.00;;
32826;SDS011;51059;42.058;27.986;2022-09-09T02:19:06;5.70;;;4.17;;
32826;SDS011;51059;42.058;27.986;2022-09-09T02:21:12;4.37;;;3.97;;
32826;SDS011;51059;42.058;27.986;2022-09-09T02:23:39;6.60;;;4.13;;
32826;SDS011;51059;42.058;27.986;2022-09-09T02:26:07;5.03;;;4.30;;
32826;SDS011;51059;42.058;27.986;2022-09-09T02:28:34;6.73;;;3.90;;
32826;SDS011;51059;42.058;27.986;2022-09-09T02:31:01;7.00;;;3.93;;
32826;SDS011;51059;42.058;27.986;2022-09-09T02:33:28;5.80;;;3.77;;
32826;SDS011;51059;42.058;27.986;2022-09-09T02:35:57;6.27;;;4.50;;
32826;SDS011;51059;42.058;27.986;2022-09-09T02:38:28;6.57;;;3.90;;
32826;SDS011;51059;42.058;27.986;2022-09-09T02:40:57;7.27;;;4.17;;
32826;SDS011;51059;42.058;27.986;2022-09-09T02:43:23;5.27;;;3.90;;
32826;SDS011;51059;42.058;27.986;2022-09-09T02:48:30;6.83;;;3.97;;
32826;SDS011;51059;42.058;27.986;2022-09-09T02:51:03;6.50;;;4.10;;
32826;SDS011;51059;42.058;27.986;2022-09-09T02:56:35;10.23;;;3.60;;
32826;SDS011;51059;42.058;27.986;2022-09-09T02:59:05;8.37;;;3.97;;
32826;SDS011;51059;42.058;27.986;2022-09-09T03:01:31;4.50;;;3.43;;
32826;SDS011;51059;42.058;27.986;2022-09-09T03:03:56;4.10;;;3.63;;
32826;SDS011;51059;42.058;27.986;2022-09-09T03:06:22;4.67;;;3.37;;
32826;SDS011;51059;42.058;27.986;2022-09-09T03:08:48;4.43;;;3.80;;
32826;SDS011;51059;42.058;27.986;2022-09-09T03:11:15;4.83;;;4.00;;
32826;SDS011;51059;42.058;27.986;2022-09-09T03:13:41;6.03;;;3.93;;
32826;SDS011;51059;42.058;27.986;2022-09-09T03:16:06;7.53;;;3.90;;
32826;SDS011;51059;42.058;27.986;2022-09-09T03:18:32;6.37;;;4.00;;
32826;SDS011;51059;42.058;27.986;2022-09-09T03:20:59;3.80;;;3.50;;
32826;SDS011;51059;42.058;27.986;2022-09-09T03:23:25;3.97;;;3.57;;
32826;SDS011;51059;42.058;27.986;2022-09-09T03:25:51;8.43;;;3.80;;
32826;SDS011;51059;42.058;27.986;2022-09-09T03:28:17;4.40;;;3.73;;
32826;SDS011;51059;42.058;27.986;2022-09-09T03:30:43;6.07;;;3.67;;
32826;SDS011;51059;42.058;27.986;2022-09-09T03:33:09;5.57;;;3.83;;
32826;SDS011;51059;42.058;27.986;2022-09-09T03:35:35;4.43;;;3.80;;
32826;SDS011;51059;42.058;27.986;2022-09-09T03:38:01;4.43;;;3.90;;
32826;SDS011;51059;42.058;27.986;2022-09-09T03:40:26;4.60;;;3.87;;
32826;SDS011;51059;42.058;27.986;2022-09-09T03:42:52;5.60;;;4.17;;
32826;SDS011;51059;42.058;27.986;2022-09-09T03:45:17;7.57;;;3.77;;
32826;SDS011;51059;42.058;27.986;2022-09-09T03:47:43;4.30;;;3.87;;
32826;SDS011;51059;42.058;27.986;2022-09-09T03:50:09;4.37;;;3.57;;
32826;SDS011;51059;42.058;27.986;2022-09-09T03:52:36;5.57;;;3.63;;
32826;SDS011;51059;42.058;27.986;2022-09-09T03:55:03;4.43;;;3.43;;
32826;SDS011;51059;42.058;27.986;2022-09-09T03:57:29;4.93;;;3.40;;
32826;SDS011;51059;42.058;27.986;2022-09-09T03:59:55;4.20;;;3.50;;
32826;SDS011;51059;42.058;27.986;2022-09-09T04:02:20;3.50;;;3.03;;
32826;SDS011;51059;42.058;27.986;2022-09-09T04:04:46;5.10;;;2.90;;
32826;SDS011;51059;42.058;27.986;2022-09-09T04:07:12;4.67;;;2.83;;
32826;SDS011;51059;42.058;27.986;2022-09-09T04:09:38;4.90;;;2.47;;
32826;SDS011;51059;42.058;27.986;2022-09-09T04:12:04;3.30;;;2.80;;
32826;SDS011;51059;42.058;27.986;2022-09-09T04:14:29;2.93;;;2.60;;
32826;SDS011;51059;42.058;27.986;2022-09-09T04:16:55;4.23;;;2.70;;
32826;SDS011;51059;42.058;27.986;2022-09-09T04:19:23;3.77;;;2.30;;
32826;SDS011;51059;42.058;27.986;2022-09-09T04:21:48;4.13;;;2.60;;
32826;SDS011;51059;42.058;27.986;2022-09-09T04:24:16;3.77;;;2.20;;
32826;SDS011;51059;42.058;27.986;2022-09-09T04:26:42;3.47;;;2.50;;
32826;SDS011;51059;42.058;27.986;2022-09-09T04:29:08;4.87;;;2.30;;
32826;SDS011;51059;42.058;27.986;2022-09-09T04:31:34;2.70;;;2.15;;
32826;SDS011;51059;42.058;27.986;2022-09-09T04:34:00;4.30;;;2.17;;
32826;SDS011;51059;42.058;27.986;2022-09-09T04:36:31;3.05;;;1.80;;
32826;SDS011;51059;42.058;27.986;2022-09-09T04:38:57;2.72;;;1.75;;
32826;SDS011;51059;42.058;27.986;2022-09-09T04:41:23;4.05;;;1.92;;
32826;SDS011;51059;42.058;27.986;2022-09-09T04:43:48;4.30;;;2.42;;
32826;SDS011;51059;42.058;27.986;2022-09-09T04:46:14;2.47;;;1.95;;
32826;SDS011;51059;42.058;27.986;2022-09-09T04:48:42;4.35;;;2.20;;
32826;SDS011;51059;42.058;27.986;2022-09-09T04:51:11;2.30;;;1.80;;
32826;SDS011;51059;42.058;27.986;2022-09-09T04:53:38;2.15;;;1.70;;
32826;SDS011;51059;42.058;27.986;2022-09-09T04:56:11;2.70;;;1.77;;
32826;SDS011;51059;42.058;27.986;2022-09-09T04:58:41;2.80;;;1.85;;
32826;SDS011;51059;42.058;27.986;2022-09-09T05:01:18;2.30;;;1.67;;
32826;SDS011;51059;42.058;27.986;2022-09-09T05:03:45;2.92;;;1.80;;
32826;SDS011;51059;42.058;27.986;2022-09-09T05:06:12;2.85;;;1.90;;
32826;SDS011;51059;42.058;27.986;2022-09-09T05:08:39;4.15;;;2.10;;
32826;SDS011;51059;42.058;27.986;2022-09-09T05:14:04;3.15;;;2.13;;
32826;SDS011;51059;42.058;27.986;2022-09-09T05:16:30;3.10;;;2.22;;
32826;SDS011;51059;42.058;27.986;2022-09-09T05:18:56;4.53;;;1.67;;
32826;SDS011;51059;42.058;27.986;2022-09-09T05:21:22;3.65;;;1.80;;
32826;SDS011;51059;42.058;27.986;2022-09-09T05:23:50;2.28;;;1.90;;
32826;SDS011;51059;42.058;27.986;2022-09-09T05:26:19;6.53;;;2.08;;
32826;SDS011;51059;42.058;27.986;2022-09-09T05:28:46;2.03;;;1.60;;
32826;SDS011;51059;42.058;27.986;2022-09-09T05:31:12;5.50;;;1.80;;
32826;SDS011;51059;42.058;27.986;2022-09-09T05:33:39;3.85;;;1.73;;
32826;SDS011;51059;42.058;27.986;2022-09-09T05:36:09;4.72;;;2.00;;
32826;SDS011;51059;42.058;27.986;2022-09-09T05:38:40;2.22;;;1.80;;
32826;SDS011;51059;42.058;27.986;2022-09-09T05:41:06;3.35;;;2.05;;
32826;SDS011;51059;42.058;27.986;2022-09-09T05:43:32;3.25;;;1.90;;
32826;SDS011;51059;42.058;27.986;2022-09-09T05:46:08;2.28;;;1.75;;
32826;SDS011;51059;42.058;27.986;2022-09-09T05:48:38;2.95;;;1.73;;
32826;SDS011;51059;42.058;27.986;2022-09-09T05:51:06;2.10;;;1.90;;
32826;SDS011;51059;42.058;27.986;2022-09-09T05:53:33;3.55;;;1.80;;
32826;SDS011;51059;42.058;27.986;2022-09-09T05:56:09;4.00;;;1.80;;
32826;SDS011;51059;42.058;27.986;2022-09-09T05:58:39;9.18;;;2.28;;
32826;SDS011;51059;42.058;27.986;2022-09-09T06:01:06;5.15;;;2.00;;
32826;SDS011;51059;42.058;27.986;2022-09-09T06:03:37;3.85;;;1.73;;
32826;SDS011;51059;42.058;27.986;2022-09-09T06:06:05;7.78;;;2.08;;
32826;SDS011;51059;42.058;27.986;2022-09-09T06:08:33;4.10;;;1.90;;
32826;SDS011;51059;42.058;27.986;2022-09-09T06:11:03;8.02;;;1.88;;
32826;SDS011;51059;42.058;27.986;2022-09-09T06:13:30;3.28;;;1.90;;
32826;SDS011;51059;42.058;27.986;2022-09-09T06:15:56;4.70;;;1.70;;
32826;SDS011;51059;42.058;27.986;2022-09-09T06:18:21;1.83;;;1.55;;
32826;SDS011;51059;42.058;27.986;2022-09-09T06:20:57;5.85;;;1.80;;
32826;SDS011;51059;42.058;27.986;2022-09-09T06:23:26;2.13;;;1.60;;
32826;SDS011;51059;42.058;27.986;2022-09-09T06:26:03;2.30;;;1.90;;
32826;SDS011;51059;42.058;27.986;2022-09-09T06:28:33;5.20;;;1.95;;
32826;SDS011;51059;42.058;27.986;2022-09-09T06:30:59;5.75;;;2.00;;
32826;SDS011;51059;42.058;27.986;2022-09-09T06:33:25;2.20;;;1.60;;
32826;SDS011;51059;42.058;27.986;2022-09-09T06:35:53;3.38;;;1.67;;
32826;SDS011;51059;42.058;27.986;2022-09-09T06:38:19;3.05;;;1.60;;
32826;SDS011;51059;42.058;27.986;2022-09-09T06:40:54;2.33;;;2.03;;
32826;SDS011;51059;42.058;27.986;2022-09-09T06:43:21;2.92;;;1.67;;
32826;SDS011;51059;42.058;27.986;2022-09-09T06:45:57;5.13;;;1.92;;
32826;SDS011;51059;42.058;27.986;2022-09-09T06:48:23;2.60;;;1.23;;
32826;SDS011;51059;42.058;27.986;2022-09-09T06:50:51;6.57;;;1.50;;
32826;SDS011;51059;42.058;27.986;2022-09-09T06:53:26;3.75;;;1.38;;
32826;SDS011;51059;42.058;27.986;2022-09-09T06:55:53;4.60;;;1.30;;
32826;SDS011;51059;42.058;27.986;2022-09-09T06:58:19;5.80;;;1.77;;
32826;SDS011;51059;42.058;27.986;2022-09-09T07:00:47;4.35;;;1.50;;
32826;SDS011;51059;42.058;27.986;2022-09-09T07:03:13;4.30;;;1.58;;
32826;SDS011;51059;42.058;27.986;2022-09-09T07:05:38;4.82;;;1.25;;
32826;SDS011;51059;42.058;27.986;2022-09-09T07:08:04;6.03;;;1.95;;
32826;SDS011;51059;42.058;27.986;2022-09-09T07:10:30;2.47;;;1.52;;
32826;SDS011;51059;42.058;27.986;2022-09-09T07:12:56;5.85;;;1.58;;
32826;SDS011;51059;42.058;27.986;2022-09-09T07:15:21;5.28;;;1.58;;
32826;SDS011;51059;42.058;27.986;2022-09-09T07:17:48;7.13;;;2.42;;
32826;SDS011;51059;42.058;27.986;2022-09-09T07:20:14;5.00;;;1.98;;
32826;SDS011;51059;42.058;27.986;2022-09-09T07:22:40;2.50;;;1.42;;
32826;SDS011;51059;42.058;27.986;2022-09-09T07:25:06;2.88;;;1.17;;
32826;SDS011;51059;42.058;27.986;2022-09-09T07:27:32;5.15;;;1.50;;
32826;SDS011;51059;42.058;27.986;2022-09-09T07:29:58;3.92;;;1.30;;
32826;SDS011;51059;42.058;27.986;2022-09-09T07:32:24;3.67;;;1.77;;
32826;SDS011;51059;42.058;27.986;2022-09-09T07:34:50;2.55;;;1.17;;
32826;SDS011;51059;42.058;27.986;2022-09-09T07:37:16;4.10;;;1.33;;
32826;SDS011;51059;42.058;27.986;2022-09-09T07:39:42;3.03;;;1.30;;
32826;SDS011;51059;42.058;27.986;2022-09-09T07:42:09;3.60;;;1.30;;
32826;SDS011;51059;42.058;27.986;2022-09-09T07:44:36;4.72;;;1.30;;
32826;SDS011;51059;42.058;27.986;2022-09-09T07:47:04;4.20;;;1.38;;
32826;SDS011;51059;42.058;27.986;2022-09-09T07:49:30;4.55;;;1.40;;
32826;SDS011;51059;42.058;27.986;2022-09-09T07:51:57;3.40;;;1.30;;
32826;SDS011;51059;42.058;27.986;2022-09-09T07:54:23;3.80;;;1.20;;
32826;SDS011;51059;42.058;27.986;2022-09-09T07:56:49;5.15;;;1.20;;
32826;SDS011;51059;42.058;27.986;2022-09-09T07:59:16;4.03;;;1.35;;
32826;SDS011;51059;42.058;27.986;2022-09-09T08:01:45;2.53;;;1.35;;
32826;SDS011;51059;42.058;27.986;2022-09-09T08:04:13;2.13;;;1.27;;
32826;SDS011;51059;42.058;27.986;2022-09-09T08:07:00;2.75;;;1.30;;
32826;SDS011;51059;42.058;27.986;2022-09-09T08:09:26;6.32;;;1.27;;
32826;SDS011;51059;42.058;27.986;2022-09-09T08:11:54;3.17;;;1.50;;
32826;SDS011;51059;42.058;27.986;2022-09-09T08:14:21;7.43;;;1.80;;
32826;SDS011;51059;42.058;27.986;2022-09-09T08:16:48;3.08;;;1.55;;
32826;SDS011;51059;42.058;27.986;2022-09-09T08:19:15;2.10;;;1.25;;
32826;SDS011;51059;42.058;27.986;2022-09-09T08:21:41;5.47;;;1.23;;
32826;SDS011;51059;42.058;27.986;2022-09-09T08:24:08;4.63;;;1.30;;
32826;SDS011;51059;42.058;27.986;2022-09-09T08:26:42;7.85;;;1.52;;
32826;SDS011;51059;42.058;27.986;2022-09-09T08:29:10;3.95;;;1.50;;
32826;SDS011;51059;42.058;27.986;2022-09-09T08:31:38;3.25;;;1.30;;
32826;SDS011;51059;42.058;27.986;2022-09-09T08:34:14;4.03;;;1.35;;
32826;SDS011;51059;42.058;27.986;2022-09-09T08:36:43;6.22;;;1.38;;
32826;SDS011;51059;42.058;27.986;2022-09-09T08:39:10;3.92;;;1.38;;
32826;SDS011;51059;42.058;27.986;2022-09-09T08:41:48;6.78;;;1.65;;
32826;SDS011;51059;42.058;27.986;2022-09-09T08:47:06;4.38;;;1.65;;
32826;SDS011;51059;42.058;27.986;2022-09-09T08:52:28;3.85;;;1.60;;
32826;SDS011;51059;42.058;27.986;2022-09-09T08:55:03;5.78;;;1.40;;
32826;SDS011;51059;42.058;27.986;2022-09-09T08:57:35;2.97;;;1.40;;
32826;SDS011;51059;42.058;27.986;2022-09-09T09:00:01;3.17;;;1.27;;
32826;SDS011;51059;42.058;27.986;2022-09-09T09:02:32;4.75;;;1.52;;
32826;SDS011;51059;42.058;27.986;2022-09-09T09:12:58;4.13;;;1.50;;
32826;SDS011;51059;42.058;27.986;2022-09-09T09:15:28;3.60;;;1.58;;
32826;SDS011;51059;42.058;27.986;2022-09-09T09:17:56;4.93;;;1.52;;
32826;SDS011;51059;42.058;27.986;2022-09-09T09:21:05;5.78;;;1.45;;
32826;SDS011;51059;42.058;27.986;2022-09-09T09:23:38;4.50;;;1.55;;
32826;SDS011;51059;42.058;27.986;2022-09-09T09:26:11;2.63;;;1.70;;
32826;SDS011;51059;42.058;27.986;2022-09-09T09:28:37;5.00;;;1.98;;
32826;SDS011;51059;42.058;27.986;2022-09-09T09:31:08;4.70;;;1.52;;
32826;SDS011;51059;42.058;27.986;2022-09-09T09:36:09;3.58;;;1.40;;
32826;SDS011;51059;42.058;27.986;2022-09-09T09:38:35;7.53;;;1.55;;
32826;SDS011;51059;42.058;27.986;2022-09-09T09:41:01;6.13;;;1.83;;
32826;SDS011;51059;42.058;27.986;2022-09-09T09:43:28;2.70;;;1.60;;
32826;SDS011;51059;42.058;27.986;2022-09-09T09:45:55;4.10;;;1.80;;
32826;SDS011;51059;42.058;27.986;2022-09-09T09:48:22;7.22;;;1.67;;
32826;SDS011;51059;42.058;27.986;2022-09-09T09:50:50;5.55;;;1.60;;
32826;SDS011;51059;42.058;27.986;2022-09-09T09:53:26;3.03;;;1.50;;
32826;SDS011;51059;42.058;27.986;2022-09-09T09:58:23;3.75;;;1.55;;
32826;SDS011;51059;42.058;27.986;2022-09-09T10:00:51;5.47;;;1.90;;
32826;SDS011;51059;42.058;27.986;2022-09-09T10:03:22;2.67;;;1.60;;
32826;SDS011;51059;42.058;27.986;2022-09-09T10:05:49;5.97;;;1.60;;
32826;SDS011;51059;42.058;27.986;2022-09-09T10:08:16;5.20;;;1.70;;
32826;SDS011;51059;42.058;27.986;2022-09-09T10:10:55;4.93;;;1.83;;
32826;SDS011;51059;42.058;27.986;2022-09-09T10:19:13;6.75;;;2.13;;
32826;SDS011;51059;42.058;27.986;2022-09-09T10:21:44;5.35;;;2.13;;
32826;SDS011;51059;42.058;27.986;2022-09-09T10:27:23;5.57;;;1.92;;
32826;SDS011;51059;42.058;27.986;2022-09-09T10:33:04;6.03;;;2.03;;
32826;SDS011;51059;42.058;27.986;2022-09-09T10:38:41;5.00;;;1.95;;
32826;SDS011;51059;42.058;27.986;2022-09-09T10:47:15;2.28;;;1.95;;
32826;SDS011;51059;42.058;27.986;2022-09-09T10:57:47;7.38;;;1.90;;
32826;SDS011;51059;42.058;27.986;2022-09-09T11:00:23;3.35;;;1.95;;
32826;SDS011;51059;42.058;27.986;2022-09-09T11:03:02;5.50;;;2.00;;
32826;SDS011;51059;42.058;27.986;2022-09-09T11:05:36;5.68;;;2.35;;
32826;SDS011;51059;42.058;27.986;2022-09-09T11:08:10;2.95;;;2.13;;
32826;SDS011;51059;42.058;27.986;2022-09-09T11:18:55;3.10;;;2.10;;
32826;SDS011;51059;42.058;27.986;2022-09-09T11:21:27;7.45;;;2.75;;
32826;SDS011;51059;42.058;27.986;2022-09-09T11:23:57;5.18;;;2.72;;
32826;SDS011;51059;42.058;27.986;2022-09-09T11:26:36;9.05;;;2.85;;
32826;SDS011;51059;42.058;27.986;2022-09-09T11:32:06;13.43;;;3.00;;
32826;SDS011;51059;42.058;27.986;2022-09-09T11:34:49;6.70;;;2.50;;
32826;SDS011;51059;42.058;27.986;2022-09-09T11:40:25;9.67;;;3.00;;
32826;SDS011;51059;42.058;27.986;2022-09-09T11:43:05;5.95;;;2.40;;
32826;SDS011;51059;42.058;27.986;2022-09-09T11:45:38;5.07;;;3.08;;
32826;SDS011;51059;42.058;27.986;2022-09-09T11:48:05;6.07;;;2.67;;
32826;SDS011;51059;42.058;27.986;2022-09-09T11:50:57;6.43;;;2.90;;
32826;SDS011;51059;42.058;27.986;2022-09-09T11:53:28;5.97;;;2.83;;
32826;SDS011;51059;42.058;27.986;2022-09-09T11:56:10;5.85;;;3.63;;
32826;SDS011;51059;42.058;27.986;2022-09-09T11:58:39;6.80;;;3.10;;
32826;SDS011;51059;42.058;27.986;2022-09-09T12:01:13;5.45;;;2.85;;
32826;SDS011;51059;42.058;27.986;2022-09-09T12:06:42;8.20;;;2.90;;
32826;SDS011;51059;42.058;27.986;2022-09-09T12:12:18;7.00;;;3.38;;
32826;SDS011;51059;42.058;27.986;2022-09-09T12:15:17;5.05;;;3.13;;
32826;SDS011;51059;42.058;27.986;2022-09-09T12:18:06;6.60;;;2.83;;
32826;SDS011;51059;42.058;27.986;2022-09-09T12:20:35;7.28;;;3.00;;
32826;SDS011;51059;42.058;27.986;2022-09-09T12:25:59;7.65;;;2.80;;
32826;SDS011;51059;42.058;27.986;2022-09-09T12:31:17;7.32;;;3.25;;
32826;SDS011;51059;42.058;27.986;2022-09-09T12:34:02;7.88;;;3.08;;
32826;SDS011;51059;42.058;27.986;2022-09-09T12:36:31;8.10;;;3.40;;
32826;SDS011;51059;42.058;27.986;2022-09-09T12:38:58;6.72;;;3.03;;
32826;SDS011;51059;42.058;27.986;2022-09-09T12:41:41;10.30;;;3.60;;
32826;SDS011;51059;42.058;27.986;2022-09-09T12:44:21;10.93;;;3.30;;
32826;SDS011;51059;42.058;27.986;2022-09-09T12:46:47;6.88;;;3.08;;
32826;SDS011;51059;42.058;27.986;2022-09-09T12:52:01;6.70;;;3.20;;
32826;SDS011;51059;42.058;27.986;2022-09-09T12:54:35;4.35;;;3.33;;
32826;SDS011;51059;42.058;27.986;2022-09-09T12:57:02;9.48;;;3.50;;
32826;SDS011;51059;42.058;27.986;2022-09-09T12:59:35;7.20;;;3.40;;
32826;SDS011;51059;42.058;27.986;2022-09-09T13:02:10;4.32;;;3.10;;
32826;SDS011;51059;42.058;27.986;2022-09-09T13:04:41;6.40;;;3.37;;
32826;SDS011;51059;42.058;27.986;2022-09-09T13:07:08;5.53;;;3.47;;
32826;SDS011;51059;42.058;27.986;2022-09-09T13:09:35;9.07;;;3.40;;
32826;SDS011;51059;42.058;27.986;2022-09-09T13:12:00;6.25;;;3.35;;
32826;SDS011;51059;42.058;27.986;2022-09-09T13:14:32;7.10;;;3.10;;
32826;SDS011;51059;42.058;27.986;2022-09-09T13:17:01;10.50;;;3.30;;
32826;SDS011;51059;42.058;27.986;2022-09-09T13:19:32;6.70;;;3.03;;
32826;SDS011;51059;42.058;27.986;2022-09-09T13:22:10;4.33;;;3.10;;
32826;SDS011;51059;42.058;27.986;2022-09-09T13:24:45;5.97;;;3.00;;
32826;SDS011;51059;42.058;27.986;2022-09-09T13:27:27;7.37;;;3.00;;
32826;SDS011;51059;42.058;27.986;2022-09-09T13:29:59;8.70;;;3.60;;
32826;SDS011;51059;42.058;27.986;2022-09-09T13:32:25;5.33;;;3.50;;
32826;SDS011;51059;42.058;27.986;2022-09-09T13:34:53;10.50;;;4.03;;
32826;SDS011;51059;42.058;27.986;2022-09-09T13:40:02;8.70;;;3.40;;
32826;SDS011;51059;42.058;27.986;2022-09-09T13:42:30;13.65;;;3.80;;
32826;SDS011;51059;42.058;27.986;2022-09-09T13:44:59;6.65;;;3.30;;
32826;SDS011;51059;42.058;27.986;2022-09-09T13:47:32;7.20;;;3.70;;
32826;SDS011;51059;42.058;27.986;2022-09-09T13:50:21;7.53;;;3.42;;
32826;SDS011;51059;42.058;27.986;2022-09-09T13:52:48;8.98;;;3.50;;
32826;SDS011;51059;42.058;27.986;2022-09-09T13:55:18;7.97;;;3.50;;
32826;SDS011;51059;42.058;27.986;2022-09-09T14:00:25;8.80;;;3.78;;
32826;SDS011;51059;42.058;27.986;2022-09-09T14:02:52;12.18;;;4.25;;
32826;SDS011;51059;42.058;27.986;2022-09-09T14:05:20;6.47;;;3.80;;
32826;SDS011;51059;42.058;27.986;2022-09-09T14:07:47;5.40;;;3.22;;
32826;SDS011;51059;42.058;27.986;2022-09-09T14:10:13;6.60;;;3.85;;
32826;SDS011;51059;42.058;27.986;2022-09-09T14:12:39;8.75;;;4.00;;
32826;SDS011;51059;42.058;27.986;2022-09-09T14:15:05;8.03;;;3.70;;
32826;SDS011;51059;42.058;27.986;2022-09-09T14:17:32;7.00;;;3.90;;
32826;SDS011;51059;42.058;27.986;2022-09-09T14:19:58;12.80;;;4.20;;
32826;SDS011;51059;42.058;27.986;2022-09-09T14:22:24;7.38;;;3.45;;
32826;SDS011;51059;42.058;27.986;2022-09-09T14:24:50;8.43;;;3.60;;
32826;SDS011;51059;42.058;27.986;2022-09-09T14:27:16;4.80;;;3.85;;
32826;SDS011;51059;42.058;27.986;2022-09-09T14:29:43;8.30;;;3.60;;
32826;SDS011;51059;42.058;27.986;2022-09-09T14:32:09;9.30;;;3.83;;
32826;SDS011;51059;42.058;27.986;2022-09-09T14:34:35;5.93;;;3.83;;
32826;SDS011;51059;42.058;27.986;2022-09-09T14:37:01;8.83;;;4.33;;
32826;SDS011;51059;42.058;27.986;2022-09-09T14:39:27;9.93;;;4.10;;
32826;SDS011;51059;42.058;27.986;2022-09-09T14:41:53;9.50;;;4.67;;
32826;SDS011;51059;42.058;27.986;2022-09-09T14:44:18;9.90;;;4.47;;
32826;SDS011;51059;42.058;27.986;2022-09-09T14:46:44;6.88;;;4.30;;
32826;SDS011;51059;42.058;27.986;2022-09-09T14:49:10;9.07;;;4.43;;
32826;SDS011;51059;42.058;27.986;2022-09-09T14:51:35;6.87;;;4.50;;
32826;SDS011;51059;42.058;27.986;2022-09-09T14:54:02;7.70;;;4.20;;
32826;SDS011;51059;42.058;27.986;2022-09-09T14:56:29;8.93;;;4.60;;
32826;SDS011;51059;42.058;27.986;2022-09-09T14:58:56;8.47;;;4.80;;
32826;SDS011;51059;42.058;27.986;2022-09-09T15:01:23;5.03;;;4.17;;
32826;SDS011;51059;42.058;27.986;2022-09-09T15:03:59;10.93;;;4.77;;
32826;SDS011;51059;42.058;27.986;2022-09-09T15:06:29;9.20;;;4.40;;
32826;SDS011;51059;42.058;27.986;2022-09-09T15:08:58;9.87;;;4.70;;
32826;SDS011;51059;42.058;27.986;2022-09-09T15:11:26;9.70;;;5.03;;
32826;SDS011;51059;42.058;27.986;2022-09-09T15:13:53;5.87;;;4.13;;
32826;SDS011;51059;42.058;27.986;2022-09-09T15:16:20;9.33;;;4.60;;
32826;SDS011;51059;42.058;27.986;2022-09-09T15:18:46;9.27;;;5.37;;
32826;SDS011;51059;42.058;27.986;2022-09-09T15:21:17;10.47;;;4.60;;
32826;SDS011;51059;42.058;27.986;2022-09-09T15:23:44;7.87;;;5.10;;
32826;SDS011;51059;42.058;27.986;2022-09-09T15:26:10;10.00;;;5.20;;
32826;SDS011;51059;42.058;27.986;2022-09-09T15:28:36;7.50;;;4.90;;
32826;SDS011;51059;42.058;27.986;2022-09-09T15:31:19;7.63;;;4.87;;
32826;SDS011;51059;42.058;27.986;2022-09-09T15:33:50;7.97;;;5.13;;
32826;SDS011;51059;42.058;27.986;2022-09-09T15:36:18;8.53;;;5.03;;
32826;SDS011;51059;42.058;27.986;2022-09-09T15:38:49;6.77;;;4.40;;
32826;SDS011;51059;42.058;27.986;2022-09-09T15:41:16;8.80;;;4.90;;
32826;SDS011;51059;42.058;27.986;2022-09-09T15:43:45;8.10;;;4.60;;
32826;SDS011;51059;42.058;27.986;2022-09-09T15:48:58;8.50;;;5.40;;
32826;SDS011;51059;42.058;27.986;2022-09-09T15:51:27;11.30;;;4.80;;
32826;SDS011;51059;42.058;27.986;2022-09-09T15:53:54;8.15;;;5.07;;
32826;SDS011;51059;42.058;27.986;2022-09-09T15:56:21;11.53;;;5.23;;
32826;SDS011;51059;42.058;27.986;2022-09-09T15:58:46;9.73;;;5.03;;
32826;SDS011;51059;42.058;27.986;2022-09-09T16:01:12;11.67;;;5.87;;
32826;SDS011;51059;42.058;27.986;2022-09-09T16:03:38;13.93;;;6.00;;
32826;SDS011;51059;42.058;27.986;2022-09-09T16:06:06;9.13;;;5.33;;
32826;SDS011;51059;42.058;27.986;2022-09-09T16:08:35;7.73;;;5.70;;
32826;SDS011;51059;42.058;27.986;2022-09-09T16:11:06;19.00;;;6.38;;
32826;SDS011;51059;42.058;27.986;2022-09-09T16:13:34;8.43;;;5.60;;
32826;SDS011;51059;42.058;27.986;2022-09-09T16:16:01;10.43;;;5.40;;
32826;SDS011;51059;42.058;27.986;2022-09-09T16:18:32;12.00;;;5.37;;
32826;SDS011;51059;42.058;27.986;2022-09-09T16:21:01;5.30;;;4.77;;
32826;SDS011;51059;42.058;27.986;2022-09-09T16:23:29;9.67;;;5.20;;
32826;SDS011;51059;42.058;27.986;2022-09-09T16:25:55;7.17;;;5.10;;
32826;SDS011;51059;42.058;27.986;2022-09-09T16:28:21;11.00;;;5.57;;
32826;SDS011;51059;42.058;27.986;2022-09-09T16:30:47;15.13;;;5.27;;
32826;SDS011;51059;42.058;27.986;2022-09-09T16:33:13;12.10;;;5.30;;
32826;SDS011;51059;42.058;27.986;2022-09-09T16:35:41;11.57;;;5.40;;
32826;SDS011;51059;42.058;27.986;2022-09-09T16:38:07;11.57;;;6.00;;
32826;SDS011;51059;42.058;27.986;2022-09-09T16:40:33;15.43;;;7.00;;
32826;SDS011;51059;42.058;27.986;2022-09-09T16:43:00;9.80;;;5.53;;
32826;SDS011;51059;42.058;27.986;2022-09-09T16:45:26;9.80;;;6.27;;
32826;SDS011;51059;42.058;27.986;2022-09-09T16:47:52;8.80;;;5.50;;
32826;SDS011;51059;42.058;27.986;2022-09-09T16:50:18;7.83;;;5.20;;
32826;SDS011;51059;42.058;27.986;2022-09-09T16:52:43;7.37;;;5.20;;
32826;SDS011;51059;42.058;27.986;2022-09-09T16:55:09;8.67;;;5.30;;
32826;SDS011;51059;42.058;27.986;2022-09-09T16:57:34;11.60;;;5.15;;
32826;SDS011;51059;42.058;27.986;2022-09-09T17:00:00;8.87;;;5.23;;
32826;SDS011;51059;42.058;27.986;2022-09-09T17:02:29;11.43;;;5.60;;
32826;SDS011;51059;42.058;27.986;2022-09-09T17:04:55;14.33;;;5.57;;